Time;durP1;ratioP1;P1;durP2;ratioP2;P2;SDS_P1;SDS_P2;PMS_P1;PMS_P2;Temp;Humidity;BMP_temperature;BMP_pressure;BME280_temperature;BME280_humidity;BME280_pressure;Samples;Min_cycle;Max_cycle;Signal;HPM_P1;HPM_P2
2022/07/24 00:01:13;;;;;;;9.85;8.65;;;;;;;23.20;49.39;95002.88;5115675;28;20520;-66
2022/07/24 00:03:40;;;;;;;8.85;7.95;;;;;;;23.17;49.08;95002.94;5115819;28;20190;-66
2022/07/24 00:06:08;;;;;;;11.02;8.57;;;;;;;23.14;49.28;94998.97;5115749;28;20218;-66
2022/07/24 00:08:34;;;;;;;10.63;8.38;;;;;;;23.12;49.39;94984.53;5115750;28;20203;-66
2022/07/24 00:11:01;;;;;;;9.65;7.80;;;;;;;23.12;49.43;94992.19;5116624;28;20198;-66
2022/07/24 00:13:28;;;;;;;10.43;8.52;;;;;;;23.09;49.42;94995.88;5115971;28;20202;-66
2022/07/24 00:15:55;;;;;;;10.73;8.38;;;;;;;23.02;49.79;95003.25;5115321;28;20188;-66
2022/07/24 00:18:23;;;;;;;10.30;8.55;;;;;;;22.99;49.63;94997.72;5115395;28;20211;-66
2022/07/24 00:20:49;;;;;;;11.30;8.40;;;;;;;22.96;50.08;95001.41;5115532;28;20218;-66
2022/07/24 00:23:18;;;;;;;9.63;8.07;;;;;;;22.93;49.87;94997.41;5115523;28;20525;-66
2022/07/24 00:25:45;;;;;;;11.23;8.80;;;;;;;22.91;49.98;94997.03;5115827;28;20202;-66
2022/07/24 00:28:12;;;;;;;10.93;8.15;;;;;;;22.89;50.34;95001.50;5115417;28;20206;-66
2022/07/24 00:30:39;;;;;;;13.27;8.98;;;;;;;22.87;50.14;94995.53;5116093;28;20607;-66
2022/07/24 00:33:06;;;;;;;10.85;8.27;;;;;;;22.85;50.22;94998.78;5115315;28;20206;-66
2022/07/24 00:35:34;;;;;;;12.18;8.07;;;;;;;22.82;50.57;94986.38;5115080;28;20262;-66
2022/07/24 00:38:01;;;;;;;10.65;8.30;;;;;;;22.78;50.93;94996.91;5115642;28;20210;-66
2022/07/24 00:40:27;;;;;;;9.73;8.73;;;;;;;22.76;50.97;94992.94;5114951;28;20207;-65
2022/07/24 00:42:55;;;;;;;12.18;7.40;;;;;;;22.85;47.67;94993.16;5116110;28;20184;-65
2022/07/24 00:45:21;;;;;;;9.27;6.75;;;;;;;22.99;46.62;94994.91;5116072;28;20257;-66
2022/07/24 00:47:48;;;;;;;11.63;6.95;;;;;;;23.08;45.99;94994.28;5116087;28;20203;-66
2022/07/24 00:50:15;;;;;;;8.68;7.28;;;;;;;23.15;46.33;94999.75;5116224;28;20183;-66
2022/07/24 00:52:43;;;;;;;10.75;8.10;;;;;;;23.17;47.69;94991.69;5115988;28;20183;-66
2022/07/24 00:55:10;;;;;;;11.05;8.38;;;;;;;23.14;48.09;94998.19;5114659;28;20261;-66
2022/07/24 00:57:38;;;;;;;11.30;8.88;;;;;;;23.06;48.29;94995.53;5114683;28;20604;-66
2022/07/24 01:00:06;;;;;;;13.75;9.13;;;;;;;22.98;48.90;94998.91;5115220;28;20224;-66
2022/07/24 01:02:33;;;;;;;12.10;8.57;;;;;;;22.91;49.26;94990.59;5115796;28;20266;-66
2022/07/24 01:05:00;;;;;;;11.00;8.20;;;;;;;22.83;49.44;94995.59;5114910;28;20200;-66
2022/07/24 01:07:26;;;;;;;12.05;8.07;;;;;;;22.81;49.76;95000.88;5115561;28;20249;-66
2022/07/24 01:09:55;;;;;;;11.85;7.80;;;;;;;22.81;49.71;95003.69;5115480;28;20242;-65
2022/07/24 01:12:22;;;;;;;9.55;8.07;;;;;;;22.82;49.60;94994.03;5115276;28;20308;-66
2022/07/24 01:14:48;;;;;;;10.35;8.38;;;;;;;22.85;49.53;94998.00;5115356;28;20187;-66
2022/07/24 01:17:15;;;;;;;10.13;8.02;;;;;;;22.80;49.25;94997.28;5115676;28;20202;-66
2022/07/24 01:19:42;;;;;;;8.88;8.00;;;;;;;22.74;49.39;94990.56;5115567;28;20211;-66
2022/07/24 01:22:10;;;;;;;10.55;8.35;;;;;;;22.71;49.86;94991.44;5115609;28;20198;-66
2022/07/24 01:24:37;;;;;;;9.65;8.23;;;;;;;22.74;49.11;94978.53;5115283;28;20184;-66
2022/07/24 01:27:04;;;;;;;11.52;8.18;;;;;;;22.73;49.83;94983.38;5115525;28;20182;-66
2022/07/24 01:29:31;;;;;;;11.98;9.02;;;;;;;22.68;50.31;94980.25;5114899;28;20206;-66
2022/07/24 01:31:58;;;;;;;12.32;8.25;;;;;;;22.56;50.08;94981.72;5114750;28;20195;-66
2022/07/24 01:34:25;;;;;;;9.75;8.05;;;;;;;22.47;50.14;94979.47;5114858;28;20198;-66
2022/07/24 01:36:53;;;;;;;12.05;8.23;;;;;;;22.39;50.39;94986.47;5115259;28;20214;-66
2022/07/24 01:39:21;;;;;;;9.30;7.60;;;;;;;22.33;50.42;94979.75;5114760;28;20193;-66
2022/07/24 01:41:47;;;;;;;9.80;7.72;;;;;;;22.31;50.61;94982.22;5114700;28;20195;-66
2022/07/24 01:44:14;;;;;;;9.13;7.70;;;;;;;22.28;50.94;94974.66;5115439;28;20199;-66
2022/07/24 01:46:41;;;;;;;8.70;7.78;;;;;;;22.25;50.60;94976.28;5114878;28;20199;-66
2022/07/24 01:49:08;;;;;;;8.90;7.93;;;;;;;22.21;50.91;94969.16;5114256;28;20199;-66
2022/07/24 01:51:34;;;;;;;11.57;8.65;;;;;;;22.20;50.86;94967.59;5114293;28;20203;-66
2022/07/24 01:54:02;;;;;;;10.57;8.20;;;;;;;22.20;51.10;94970.41;5114293;28;20243;-66
2022/07/24 01:56:30;;;;;;;9.07;7.72;;;;;;;22.16;51.62;94975.28;5114208;28;20200;-66
2022/07/24 01:58:57;;;;;;;10.98;8.05;;;;;;;22.14;51.47;94972.09;5114319;28;20203;-66
2022/07/24 02:01:24;;;;;;;11.02;8.10;;;;;;;22.10;51.42;94961.72;5114853;28;20551;-66
2022/07/24 02:03:51;;;;;;;11.13;8.48;;;;;;;22.06;51.47;94969.41;5113953;28;20196;-66
2022/07/24 02:06:18;;;;;;;10.52;8.10;;;;;;;22.05;51.66;94967.03;5114896;28;20188;-66
2022/07/24 02:08:45;;;;;;;12.50;8.43;;;;;;;22.04;51.78;94968.25;5113894;28;20693;-66
2022/07/24 02:11:12;;;;;;;11.15;8.20;;;;;;;22.03;52.03;94966.66;5114250;28;20199;-66
2022/07/24 02:13:40;;;;;;;11.23;8.20;;;;;;;21.99;52.11;94972.34;5114271;28;20198;-66
2022/07/24 02:16:07;;;;;;;12.13;7.97;;;;;;;21.98;52.02;94967.19;5115106;28;20196;-66
2022/07/24 02:18:35;;;;;;;9.02;8.02;;;;;;;21.96;52.24;94967.59;5115108;28;20184;-65
2022/07/24 02:21:02;;;;;;;10.63;7.60;;;;;;;21.97;52.18;94965.56;5114987;28;20200;-66
2022/07/24 02:23:29;;;;;;;11.10;8.13;;;;;;;21.97;52.09;94968.38;5115960;28;20207;-66
2022/07/24 02:25:56;;;;;;;10.10;8.30;;;;;;;21.95;52.53;94968.81;5117566;28;20204;-65
2022/07/24 02:28:23;;;;;;;9.68;8.30;;;;;;;21.93;52.14;94970.47;5118409;28;20184;-66
2022/07/24 02:30:51;;;;;;;10.23;8.52;;;;;;;21.90;52.20;94968.53;5117835;28;20189;-66
2022/07/24 02:33:18;;;;;;;10.38;7.80;;;;;;;21.93;52.03;94974.06;5118700;28;20183;-65
2022/07/24 02:35:44;;;;;;;9.93;8.32;;;;;;;21.91;51.10;94968.09;5118908;28;20188;-66
2022/07/24 02:38:11;;;;;;;10.68;8.13;;;;;;;21.91;51.37;94979.31;5118682;28;20191;-65
2022/07/24 02:40:38;;;;;;;10.93;8.15;;;;;;;21.93;50.77;94973.28;5118434;28;20203;-65
2022/07/24 02:43:05;;;;;;;10.05;8.20;;;;;;;21.95;50.86;94977.25;5117538;28;20566;-65
2022/07/24 02:45:31;;;;;;;10.60;8.20;;;;;;;21.95;51.57;94984.88;5117885;28;20212;-66
2022/07/24 02:48:00;;;;;;;9.23;7.57;;;;;;;21.92;51.89;94977.31;5117721;28;20200;-66
2022/07/24 02:50:31;;;;;;;10.25;7.88;;;;;;;21.88;51.16;94966.13;5117237;28;20192;-65
2022/07/24 02:52:58;;;;;;;9.18;8.00;;;;;;;21.87;51.26;94970.97;5117172;28;20195;-65
2022/07/24 02:55:27;;;;;;;9.55;8.38;;;;;;;21.80;51.56;94975.91;5116986;28;20301;-66
2022/07/24 02:57:54;;;;;;;8.68;7.82;;;;;;;21.67;51.51;94975.72;5117677;28;20203;-66
2022/07/24 03:00:21;;;;;;;9.20;8.15;;;;;;;21.62;51.97;94971.41;5117997;28;20204;-66
2022/07/24 03:02:48;;;;;;;10.18;7.85;;;;;;;21.55;51.88;94973.53;5117825;28;20184;-66
2022/07/24 03:05:16;;;;;;;9.43;7.72;;;;;;;21.48;51.72;94979.28;5118008;28;20184;-66
2022/07/24 03:07:43;;;;;;;8.20;7.40;;;;;;;21.42;51.75;94973.34;5117642;28;20192;-65
2022/07/24 03:10:12;;;;;;;9.32;7.80;;;;;;;21.42;51.99;94975.34;5117971;28;20180;-65
2022/07/24 03:12:39;;;;;;;10.98;7.88;;;;;;;21.41;51.93;94973.78;5117018;28;20628;-66
2022/07/24 03:15:07;;;;;;;10.98;8.18;;;;;;;21.38;52.34;94976.19;5117753;28;20191;-66
2022/07/24 03:17:34;;;;;;;11.18;8.38;;;;;;;21.37;52.29;94985.84;5117507;28;20194;-66
2022/07/24 03:20:00;;;;;;;10.73;8.35;;;;;;;21.36;52.11;94975.84;5117645;28;20271;-66
2022/07/24 03:22:29;;;;;;;13.48;8.02;;;;;;;21.39;52.68;94988.22;5117112;28;20195;-66
2022/07/24 03:24:55;;;;;;;10.93;7.70;;;;;;;21.37;52.56;94983.03;5117206;28;20195;-66
2022/07/24 03:27:22;;;;;;;9.13;7.90;;;;;;;21.37;52.13;94988.66;5117769;28;20188;-66
2022/07/24 03:29:49;;;;;;;12.93;8.00;;;;;;;21.40;52.36;94987.00;5116768;28;20203;-66
2022/07/24 03:32:16;;;;;;;11.88;8.10;;;;;;;21.36;52.59;94973.03;5117233;28;20180;-66
2022/07/24 03:34:43;;;;;;;9.13;7.30;;;;;;;21.39;52.71;94980.59;5116919;28;20192;-66
2022/07/24 03:37:09;;;;;;;9.80;8.05;;;;;;;21.42;52.53;94978.94;5116385;28;20623;-66
2022/07/24 03:39:38;;;;;;;11.35;8.35;;;;;;;21.42;52.75;94984.56;5117396;28;20188;-66
2022/07/24 03:42:05;;;;;;;9.00;7.82;;;;;;;21.44;53.04;94984.16;5115995;28;20212;-66
2022/07/24 03:44:32;;;;;;;9.80;8.05;;;;;;;21.42;52.44;94978.16;5116302;28;20203;-71
2022/07/24 03:46:59;;;;;;;9.25;8.32;;;;;;;21.38;53.02;94978.22;5117197;28;20172;-66
2022/07/24 03:49:25;;;;;;;12.43;8.25;;;;;;;21.34;52.77;94969.06;5116632;28;20203;-66
2022/07/24 03:51:52;;;;;;;13.52;8.75;;;;;;;21.32;53.13;94966.66;5117009;28;20678;-66
2022/07/24 03:54:19;;;;;;;8.80;7.90;;;;;;;21.31;52.98;94976.28;5116719;28;20250;-66
2022/07/24 03:56:47;;;;;;;12.20;7.82;;;;;;;21.32;53.26;94971.50;5116075;28;20264;-66
2022/07/24 03:59:14;;;;;;;11.43;8.32;;;;;;;21.33;53.24;94964.66;5117124;28;20180;-66
2022/07/24 04:01:41;;;;;;;9.40;7.97;;;;;;;21.34;53.35;94975.47;5117052;28;20215;-66
2022/07/24 04:04:07;;;;;;;12.13;8.93;;;;;;;21.36;54.19;94981.44;5116564;28;20214;-66
2022/07/24 04:06:35;;;;;;;16.40;9.90;;;;;;;21.38;53.42;94981.00;5116290;28;20199;-65
2022/07/24 04:09:03;;;;;;;12.73;9.25;;;;;;;21.39;53.78;94979.81;5117032;28;20196;-66
2022/07/24 04:11:30;;;;;;;14.68;9.88;;;;;;;21.41;54.01;94974.56;5117182;28;20196;-66
2022/07/24 04:13:59;;;;;;;10.48;9.25;;;;;;;21.44;54.03;94976.53;5116318;28;20202;-66
2022/07/24 04:16:25;;;;;;;11.40;9.30;;;;;;;21.48;54.04;94985.66;5117166;28;20187;-66
2022/07/24 04:18:52;;;;;;;12.95;9.50;;;;;;;21.50;53.77;94980.44;5115731;28;20195;-66
2022/07/24 04:21:19;;;;;;;10.85;9.80;;;;;;;21.54;53.37;94983.19;5115766;28;20564;-66
2022/07/24 04:23:46;;;;;;;14.13;10.35;;;;;;;21.54;53.19;94986.00;5115366;28;20204;-66
2022/07/24 04:26:13;;;;;;;15.50;10.40;;;;;;;21.54;52.72;94995.19;5116515;28;20192;-66
2022/07/24 04:28:41;;;;;;;11.18;10.00;;;;;;;21.58;53.01;94995.13;5116235;28;20180;-66
2022/07/24 04:31:10;;;;;;;13.35;10.68;;;;;;;21.62;52.42;94996.66;5116329;28;20188;-66
2022/07/24 04:33:37;;;;;;;14.98;10.40;;;;;;;21.68;52.08;94988.56;5115832;28;20200;-66
2022/07/24 04:36:05;;;;;;;15.93;12.50;;;;;;;21.69;52.54;94992.94;5116218;28;20326;-66
2022/07/24 04:38:33;;;;;;;13.45;11.50;;;;;;;21.60;53.14;94996.28;5115634;28;20221;-66
2022/07/24 04:40:59;;;;;;;16.60;12.98;;;;;;;21.58;53.21;94995.94;5116240;28;20208;-66
2022/07/24 04:43:26;;;;;;;15.23;13.13;;;;;;;21.62;52.49;95005.06;5115866;28;20196;-66
2022/07/24 04:45:53;;;;;;;13.68;11.73;;;;;;;21.69;52.08;95006.19;5115664;28;20634;-66
2022/07/24 04:48:21;;;;;;;15.15;10.63;;;;;;;21.75;51.76;94996.03;5114973;28;20203;-66
2022/07/24 04:50:48;;;;;;;12.27;10.90;;;;;;;21.77;51.58;94997.22;5115431;28;20202;-66
2022/07/24 04:53:14;;;;;;;12.50;10.38;;;;;;;21.82;51.67;94993.09;5115765;28;20199;-66
2022/07/24 04:55:41;;;;;;;11.63;10.52;;;;;;;21.82;51.78;94991.13;5114663;28;20231;-66
2022/07/24 04:58:08;;;;;;;12.90;9.77;;;;;;;21.85;52.06;94986.66;5115869;28;20196;-66
2022/07/24 05:00:35;;;;;;;13.00;10.38;;;;;;;21.87;51.94;94987.81;5115788;28;20199;-66
2022/07/24 05:03:02;;;;;;;11.00;9.75;;;;;;;21.92;52.65;95000.56;5115826;28;20180;-70
2022/07/24 05:05:30;;;;;;;13.93;10.32;;;;;;;21.93;52.04;94990.91;5114614;28;20199;-69
2022/07/24 05:07:57;;;;;;;15.13;9.88;;;;;;;21.95;51.97;94993.31;5116064;28;20556;-69
2022/07/24 05:10:23;;;;;;;12.80;10.15;;;;;;;21.97;51.61;94993.66;5115577;28;20195;-69
2022/07/24 05:12:51;;;;;;;11.80;9.63;;;;;;;21.97;51.48;95008.50;5115768;28;20199;-69
2022/07/24 05:15:18;;;;;;;11.52;9.68;;;;;;;22.00;50.83;95004.03;5115739;28;20184;-69
2022/07/24 05:17:44;;;;;;;12.05;9.02;;;;;;;22.04;50.71;95008.38;5115321;28;20214;-72
2022/07/24 05:20:11;;;;;;;9.98;8.98;;;;;;;22.10;49.97;95009.44;5114806;28;20195;-70
2022/07/24 05:22:40;;;;;;;12.00;9.55;;;;;;;22.15;50.01;94999.78;5115665;28;20214;-70
2022/07/24 05:25:08;;;;;;;11.00;8.60;;;;;;;22.18;49.75;95001.72;5115516;28;20180;-69
2022/07/24 05:27:35;;;;;;;10.43;8.32;;;;;;;22.25;49.40;95000.78;5114664;28;20198;-69
2022/07/24 05:30:02;;;;;;;9.10;8.20;;;;;;;22.33;49.60;94996.59;5115674;28;20245;-69
2022/07/24 05:32:28;;;;;;;9.68;8.68;;;;;;;22.41;49.21;95000.88;5114893;28;20200;-69
2022/07/24 05:34:55;;;;;;;9.38;8.38;;;;;;;22.47;49.69;94999.13;5114478;28;20207;-69
2022/07/24 05:37:22;;;;;;;9.60;8.43;;;;;;;22.47;49.77;95001.16;5115818;28;20203;-69
2022/07/24 05:39:50;;;;;;;11.18;8.10;;;;;;;22.47;49.06;94998.34;5115466;28;20183;-69
2022/07/24 05:42:17;;;;;;;10.50;8.20;;;;;;;22.49;49.29;94993.91;5115130;28;20203;-69
2022/07/24 05:44:44;;;;;;;10.52;8.32;;;;;;;22.52;49.33;94995.84;5115444;28;20188;-68
2022/07/24 05:47:11;;;;;;;9.63;7.85;;;;;;;22.55;49.37;94997.78;5115432;28;20604;-69
2022/07/24 05:49:37;;;;;;;9.98;8.68;;;;;;;22.58;49.14;94991.28;5115424;28;20268;-69
2022/07/24 05:52:05;;;;;;;11.00;8.55;;;;;;;22.63;48.94;94992.03;5114688;28;20196;-69
2022/07/24 05:54:32;;;;;;;9.45;7.80;;;;;;;22.67;49.07;94992.75;5115124;28;20292;-69
2022/07/24 05:57:00;;;;;;;10.50;7.85;;;;;;;22.75;48.86;94991.34;5114370;28;20192;-69
2022/07/24 05:59:27;;;;;;;9.30;8.25;;;;;;;22.81;48.38;94990.41;5117990;28;20207;-69
2022/07/24 06:01:53;;;;;;;13.63;10.48;;;;;;;22.89;48.40;94979.81;5119376;28;20226;-69
2022/07/24 06:04:20;;;;;;;11.10;8.60;;;;;;;22.94;47.91;94986.97;5118912;28;20202;-69
2022/07/24 06:06:47;;;;;;;9.48;7.63;;;;;;;22.96;48.92;94988.13;5118019;28;20200;-69
2022/07/24 06:09:14;;;;;;;10.63;9.27;;;;;;;22.95;48.86;94992.16;5118117;28;20199;-69
2022/07/24 06:11:40;;;;;;;9.25;8.27;;;;;;;22.97;48.46;95000.16;5119058;28;20180;-69
2022/07/24 06:14:09;;;;;;;8.52;7.63;;;;;;;23.05;48.49;95005.19;5118174;28;20619;-69
2022/07/24 06:16:35;;;;;;;8.63;7.75;;;;;;;23.18;48.37;94996.88;5119100;28;20194;-69
2022/07/24 06:19:02;;;;;;;10.45;9.23;;;;;;;23.30;48.03;94995.38;5117793;28;20191;-69
2022/07/24 06:21:29;;;;;;;12.00;8.45;;;;;;;23.39;47.70;94989.97;5119039;28;20242;-69
2022/07/24 06:23:56;;;;;;;12.18;8.20;;;;;;;23.43;47.38;94989.88;5118050;28;20199;-69
2022/07/24 06:26:22;;;;;;;12.50;9.68;;;;;;;23.48;47.43;94978.09;5118548;28;20481;-69
2022/07/24 06:28:49;;;;;;;13.70;8.68;;;;;;;23.53;47.77;94983.19;5118709;28;20200;-71
2022/07/24 06:31:17;;;;;;;11.93;8.48;;;;;;;23.54;47.74;94984.78;5118049;28;20191;-68
2022/07/24 06:33:44;;;;;;;12.90;8.40;;;;;;;23.55;48.01;94984.31;5117494;28;20215;-67
2022/07/24 06:36:11;;;;;;;14.70;9.07;;;;;;;23.60;47.74;94970.94;5117064;28;20431;-68
2022/07/24 06:38:38;;;;;;;14.68;8.20;;;;;;;23.71;48.17;94971.50;5117381;28;20286;-72
2022/07/24 06:41:05;;;;;;;16.48;9.77;;;;;;;23.84;47.86;94977.22;5117121;28;20199;-72
2022/07/24 06:43:32;;;;;;;11.85;8.60;;;;;;;23.90;47.77;94970.63;5117979;28;20188;-71
2022/07/24 06:45:59;;;;;;;10.95;8.30;;;;;;;23.90;48.09;94970.63;5117574;28;20195;-73
2022/07/24 06:48:27;;;;;;;10.80;8.77;;;;;;;23.90;48.83;94964.19;5118228;28;20183;-69
2022/07/24 06:50:54;;;;;;;11.40;9.15;;;;;;;23.88;49.21;94961.81;5118301;28;20184;-71
2022/07/24 06:53:20;;;;;;;14.25;8.43;;;;;;;23.93;48.87;94958.47;5118358;28;20572;-70
2022/07/24 06:55:47;;;;;;;14.05;8.85;;;;;;;24.02;48.77;94961.44;5116940;28;20227;-70
2022/07/24 06:58:14;;;;;;;14.43;8.10;;;;;;;24.06;48.61;94950.06;5117932;28;20577;-69
2022/07/24 07:00:41;;;;;;;17.52;8.52;;;;;;;24.17;48.67;94950.56;5117249;28;20196;-71
2022/07/24 07:03:08;;;;;;;18.92;9.25;;;;;;;24.29;48.29;94949.03;5118015;28;20210;-70
2022/07/24 07:05:36;;;;;;;13.88;8.70;;;;;;;24.42;47.81;94958.38;5117108;28;20210;-70
2022/07/24 07:08:03;;;;;;;14.30;8.63;;;;;;;24.54;47.54;94954.00;5117755;28;20204;-70
2022/07/24 07:10:30;;;;;;;11.60;8.93;;;;;;;24.61;46.96;94950.19;5116311;28;20195;-71
2022/07/24 07:12:57;;;;;;;14.45;8.43;;;;;;;24.70;46.81;94953.16;5117854;28;20183;-71
2022/07/24 07:15:24;;;;;;;10.57;8.95;;;;;;;24.80;46.61;94959.69;5117598;28;20211;-71
2022/07/24 07:17:51;;;;;;;9.68;8.13;;;;;;;24.85;46.17;94957.13;5117796;28;20188;-71
2022/07/24 07:20:18;;;;;;;13.55;8.38;;;;;;;24.86;45.30;94955.09;5116813;28;20203;-70
2022/07/24 07:22:46;;;;;;;11.45;8.43;;;;;;;24.88;45.36;94950.59;5117614;28;20325;-71
2022/07/24 07:25:13;;;;;;;9.43;7.75;;;;;;;24.94;45.38;94953.63;5117705;28;20183;-71
2022/07/24 07:27:40;;;;;;;9.25;8.32;;;;;;;24.99;44.79;94950.25;5116736;28;20253;-71
2022/07/24 07:30:09;;;;;;;9.27;8.32;;;;;;;25.06;44.41;94960.53;5117867;28;20189;-71
2022/07/24 07:32:36;;;;;;;10.70;8.18;;;;;;;25.12;44.29;94955.94;5117393;28;20233;-70
2022/07/24 07:35:03;;;;;;;14.65;9.63;;;;;;;25.12;44.12;94956.72;5116549;28;20188;-71
2022/07/24 07:37:30;;;;;;;10.13;8.43;;;;;;;25.13;44.05;94960.34;5117884;28;20199;-71
2022/07/24 07:39:58;;;;;;;13.15;8.93;;;;;;;25.16;43.84;94951.78;5116948;28;20202;-71
2022/07/24 07:42:25;;;;;;;12.43;8.52;;;;;;;25.19;43.86;94950.06;5117029;28;20618;-71
2022/07/24 07:44:52;;;;;;;10.55;8.90;;;;;;;25.23;43.88;94945.09;5116387;28;20200;-70
2022/07/24 07:47:19;;;;;;;10.45;8.68;;;;;;;25.29;43.91;94945.34;5117092;28;20592;-70
2022/07/24 07:49:46;;;;;;;10.95;8.77;;;;;;;25.31;43.45;94942.84;5116939;28;20206;-71
2022/07/24 07:52:12;;;;;;;13.82;8.43;;;;;;;25.33;43.76;94946.78;5116827;28;20190;-71
2022/07/24 07:54:39;;;;;;;10.75;9.00;;;;;;;25.37;43.72;94943.84;5116940;28;20238;-71
2022/07/24 07:57:07;;;;;;;13.32;9.10;;;;;;;25.42;43.78;94943.31;5117045;28;20188;-70
2022/07/24 07:59:34;;;;;;;12.38;9.38;;;;;;;25.48;43.08;94952.75;5116644;28;20600;-71
2022/07/24 08:02:01;;;;;;;11.68;9.30;;;;;;;25.54;43.07;94953.78;5116412;28;20208;-72
2022/07/24 08:04:28;;;;;;;12.25;10.15;;;;;;;25.63;42.64;94948.22;5116917;28;20195;-70
2022/07/24 08:06:54;;;;;;;14.02;9.23;;;;;;;25.63;43.35;94945.41;5116647;28;20176;-71
2022/07/24 08:09:21;;;;;;;13.65;9.73;;;;;;;25.57;43.24;94952.88;5116899;28;20187;-71
2022/07/24 08:11:48;;;;;;;13.82;9.30;;;;;;;25.51;43.56;94946.22;5116495;28;20180;-71
2022/07/24 08:14:17;;;;;;;10.75;8.82;;;;;;;25.46;43.47;94955.28;5115886;28;20207;-71
2022/07/24 08:16:44;;;;;;;12.68;9.48;;;;;;;25.44;43.32;94941.59;5115796;28;20184;-73
2022/07/24 08:19:11;;;;;;;10.75;9.38;;;;;;;25.42;44.03;94946.13;5115900;28;20199;-71
2022/07/24 08:21:37;;;;;;;10.40;9.38;;;;;;;25.45;43.45;94948.03;5115503;28;20607;-71
2022/07/24 08:24:05;;;;;;;11.25;9.57;;;;;;;25.47;43.75;94947.59;5116517;28;20184;-71
2022/07/24 08:26:32;;;;;;;13.85;9.40;;;;;;;25.50;44.25;94953.13;5115846;28;20184;-70
2022/07/24 08:28:59;;;;;;;14.18;10.07;;;;;;;25.63;43.69;94947.44;5116306;28;20206;-71
2022/07/24 08:31:27;;;;;;;12.75;9.85;;;;;;;25.67;43.60;94948.91;5116196;28;20195;-71
2022/07/24 08:33:54;;;;;;;14.57;10.23;;;;;;;25.63;43.78;94953.09;5116183;28;20191;-70
2022/07/24 08:36:21;;;;;;;13.07;10.13;;;;;;;25.61;44.60;94947.13;5116381;28;20208;-71
2022/07/24 08:38:48;;;;;;;11.93;9.77;;;;;;;25.62;44.71;94946.66;5116014;28;20180;-71
2022/07/24 08:41:14;;;;;;;12.40;9.23;;;;;;;25.65;44.74;94948.56;5116171;28;20187;-71
2022/07/24 08:43:42;;;;;;;10.35;9.35;;;;;;;25.63;44.88;94938.97;5115175;28;20211;-71
2022/07/24 08:46:10;;;;;;;10.80;9.70;;;;;;;25.68;44.94;94942.03;5116130;28;20184;-71
2022/07/24 08:48:43;;;;;;;14.90;9.30;;;;;;;25.73;44.52;94943.47;5115105;28;20195;-71
2022/07/24 08:51:10;;;;;;;14.77;10.63;;;;;;;25.81;44.64;94938.41;5115799;28;20196;-71
2022/07/24 08:53:37;;;;;;;13.90;10.10;;;;;;;26.02;45.15;94939.69;5115285;28;20188;-71
2022/07/24 08:56:04;;;;;;;10.80;9.20;;;;;;;26.20;45.42;94939.06;5114594;28;20235;-71
2022/07/24 08:58:31;;;;;;;12.48;9.88;;;;;;;26.32;45.11;94936.19;5114801;28;20199;-71
2022/07/24 09:00:58;;;;;;;12.27;9.88;;;;;;;26.44;44.48;94931.72;5115526;28;20622;-71
2022/07/24 09:03:24;;;;;;;12.15;9.85;;;;;;;26.50;43.65;94929.13;5115318;28;20219;-71
2022/07/24 09:05:57;;;;;;;13.23;9.75;;;;;;;26.56;44.04;94939.38;5115273;28;20192;-71
2022/07/24 09:08:24;;;;;;;13.32;9.95;;;;;;;26.66;43.66;94936.63;5115862;28;20183;-71
2022/07/24 09:10:55;;;;;;;11.13;9.82;;;;;;;26.70;44.36;94928.78;5114982;28;20281;-71
2022/07/24 09:13:26;;;;;;;12.82;9.73;;;;;;;26.79;45.23;94926.00;5115802;28;20217;-71
2022/07/24 09:15:54;;;;;;;11.05;9.73;;;;;;;26.95;44.35;94925.03;5114842;28;20191;-71
2022/07/24 09:18:28;;;;;;;11.63;9.85;;;;;;;27.19;43.89;94922.47;5115500;28;20279;-70
2022/07/24 09:20:57;;;;;;;11.48;10.00;;;;;;;27.46;41.68;94916.91;5115364;28;20191;-71
2022/07/24 09:23:24;;;;;;;14.15;10.98;;;;;;;27.60;42.33;94918.38;5115212;28;20228;-71
2022/07/24 09:25:53;;;;;;;11.93;10.27;;;;;;;27.75;41.38;94922.22;5115609;28;20211;-71
2022/07/24 09:28:20;;;;;;;11.75;9.13;;;;;;;27.84;40.82;94922.22;5115707;28;20215;-71
2022/07/24 09:30:48;;;;;;;10.55;8.82;;;;;;;28.00;40.39;94917.53;5115546;28;20184;-72
2022/07/24 09:33:21;;;;;;;10.02;8.70;;;;;;;27.98;40.83;94920.03;5115923;28;20192;-71
2022/07/24 09:35:49;;;;;;;12.23;9.35;;;;;;;28.06;39.85;94926.97;5119569;28;20236;-71
2022/07/24 09:38:19;;;;;;;10.43;9.20;;;;;;;28.27;39.84;94920.38;5119894;28;20208;-71
2022/07/24 09:40:46;;;;;;;10.95;9.82;;;;;;;28.49;39.01;94919.44;5119591;28;20204;-71
2022/07/24 09:43:21;;;;;;;10.35;9.25;;;;;;;28.74;37.28;94916.25;5119594;28;20218;-71
2022/07/24 09:45:54;;;;;;;9.27;8.35;;;;;;;28.73;34.75;94917.53;5119757;28;20207;-71
2022/07/24 09:48:22;;;;;;;11.35;8.25;;;;;;;28.82;35.14;94913.09;5118408;28;20199;-71
2022/07/24 09:50:51;;;;;;;10.85;9.27;;;;;;;28.98;37.63;94912.75;5118835;28;20245;-71
2022/07/24 09:53:20;;;;;;;10.85;9.15;;;;;;;29.05;36.10;94905.97;5118471;28;20540;-72
2022/07/24 09:55:58;;;;;;;11.25;9.15;;;;;;;29.15;35.51;94910.34;5119157;28;20239;-71
2022/07/24 09:58:25;;;;;;;10.43;8.05;;;;;;;29.30;35.91;94905.53;5119119;28;20608;-71
2022/07/24 10:00:55;;;;;;;13.15;9.23;;;;;;;29.37;36.24;94912.94;5118592;28;20196;-71
2022/07/24 10:03:25;;;;;;;13.30;9.27;;;;;;;29.59;36.68;94896.44;5118300;28;20235;-71
2022/07/24 10:05:55;;;;;;;12.02;9.40;;;;;;;29.73;34.24;94900.63;5119244;28;20188;-71
2022/07/24 10:08:25;;;;;;;12.25;8.20;;;;;;;29.80;33.61;94896.66;5119305;28;20191;-71
2022/07/24 10:10:52;;;;;;;10.48;8.73;;;;;;;29.79;34.73;94890.19;5119165;28;20200;-71
2022/07/24 10:13:19;;;;;;;9.00;8.13;;;;;;;29.89;34.04;94899.44;5119084;28;20237;-72
2022/07/24 10:15:53;;;;;;;9.90;8.93;;;;;;;29.98;34.33;94894.47;5117978;28;20207;-71
2022/07/24 10:18:22;;;;;;;10.15;7.75;;;;;;;30.10;34.10;94889.78;5118093;28;20196;-72
2022/07/24 10:20:49;;;;;;;9.60;8.43;;;;;;;30.21;32.90;94889.25;5118656;28;20267;-71
2022/07/24 10:23:28;;;;;;;9.82;8.82;;;;;;;30.20;33.64;94891.31;5118578;28;20210;-71
2022/07/24 10:25:57;;;;;;;11.70;8.70;;;;;;;30.08;33.96;94898.03;5118806;28;20188;-71
2022/07/24 10:28:41;;;;;;;10.55;8.85;;;;;;;30.12;34.74;94884.41;5118839;28;20192;-71
2022/07/24 10:31:09;;;;;;;11.52;8.43;;;;;;;30.21;34.65;94880.72;5118001;28;20208;-71
2022/07/24 10:33:38;;;;;;;11.75;8.73;;;;;;;30.45;32.38;94877.84;5118844;28;20184;-71
2022/07/24 10:36:24;;;;;;;9.82;8.52;;;;;;;30.54;31.82;94882.66;5117628;28;20199;-71
2022/07/24 10:39:10;;;;;;;9.73;8.55;;;;;;;30.46;32.48;94879.41;5118714;28;20188;-71
2022/07/24 10:41:37;;;;;;;10.23;8.43;;;;;;;30.40;31.54;94879.31;5118385;28;20202;-71
2022/07/24 10:44:18;;;;;;;10.30;8.00;;;;;;;30.40;33.45;94872.84;5117615;28;20204;-71
2022/07/24 10:46:58;;;;;;;9.30;8.32;;;;;;;30.56;33.55;94868.72;5117339;28;20207;-71
2022/07/24 10:49:42;;;;;;;9.15;8.18;;;;;;;30.69;33.53;94872.09;5118456;28;20194;-71
2022/07/24 10:52:11;;;;;;;12.52;9.35;;;;;;;30.76;34.22;94866.03;5118387;28;20245;-71
2022/07/24 10:54:40;;;;;;;9.15;8.25;;;;;;;30.95;31.48;94860.13;5116945;28;20234;-72
2022/07/24 10:57:07;;;;;;;10.27;9.15;;;;;;;30.97;32.09;94860.41;5117853;28;20508;-72
2022/07/24 10:59:35;;;;;;;9.55;8.63;;;;;;;30.98;33.53;94853.47;5117996;28;20195;-72
2022/07/24 11:02:25;;;;;;;11.05;9.75;;;;;;;31.22;31.17;94847.59;5117468;28;20203;-72
2022/07/24 11:05:26;;;;;;;9.63;8.55;;;;;;;31.39;31.30;94858.00;5117836;28;20216;-72
2022/07/24 11:08:31;;;;;;;12.85;8.73;;;;;;;31.37;31.56;94851.22;5118153;28;20232;-72
2022/07/24 11:11:01;;;;;;;9.55;8.55;;;;;;;31.16;29.69;94848.31;5117107;28;20272;-72
2022/07/24 11:13:45;;;;;;;9.18;8.27;;;;;;;31.00;30.92;94843.13;5117946;28;20246;-72
2022/07/24 11:16:17;;;;;;;10.13;8.90;;;;;;;30.80;33.30;94845.91;5117551;28;20223;-72
2022/07/24 11:19:22;;;;;;;10.85;9.75;;;;;;;30.61;33.81;94842.41;5116668;28;20196;-72
2022/07/24 11:21:49;;;;;;;9.15;8.25;;;;;;;30.60;31.75;94841.63;5117871;28;20204;-72
2022/07/24 11:24:17;;;;;;;9.40;8.57;;;;;;;30.51;33.12;94843.81;5116811;28;20212;-72
2022/07/24 11:26:48;;;;;;;11.40;10.25;;;;;;;30.34;33.66;94837.81;5116670;28;20256;-72
2022/07/24 11:29:16;;;;;;;10.25;9.25;;;;;;;30.17;33.25;94840.31;5116500;28;20204;-72
2022/07/24 11:31:44;;;;;;;9.93;8.80;;;;;;;29.86;33.43;94840.72;5116758;28;20202;-72